Silia — WDG2034 — position and weather

sailwx.info

Track history (hours):
 
Tides and Currents Weather Stations Pressure Air Temp Water Temp Dewpoint Dewpoint Depression Visibility Wind Speed Wind Dir Waves Ship Positions

Silia

Owner: greger pacific marine, napa, CA. More information available from US FCC via Universal Licensing System and Coast Guard Vessel Documentation Center.

Last reported at 2016-Aug-28 22:26 UTC. Time now 2016-Aug-29 01:55 UTC.
Position N 37°40' W 122°23'.

Length 17 m; draft 3 m.

Type: Tug. MMSI: 367511460.

Date/timePositionNaut miles runAvg speedWind from/ knotsBaromVisibWave heightAir tempDewpointWater temp
2016-Aug-28 22:26N 37°40' W 122°23'0 0.0
2016-Aug-28 06:32N 37°40' W 122°23'0 0.0
2016-Aug-27 21:26N 37°40' W 122°23'0 0.0
2016-Aug-27 20:31N 37°40' W 122°23'0 0.0
2016-Aug-27 18:29N 37°40' W 122°23'0 0.0
2016-Aug-27 02:17N 37°40' W 122°23'0 0.0
2016-Aug-27 01:33N 37°40' W 122°23'4 4.2
2016-Aug-27 00:33N 37°44' W 122°22'5 4.6
2016-Aug-26 23:33N 37°49' W 122°24'5 4.9
2016-Aug-26 22:34N 37°44' W 122°21'3 3.3
2016-Aug-26 21:31N 37°41' W 122°22'7 7.0
2016-Aug-26 20:33N 37°47' W 122°23'1 1.0
2016-Aug-26 19:33N 37°46' W 122°23'6 6.1
2016-Aug-26 18:32N 37°40' W 122°23'1 0.8
2016-Aug-26 17:28N 37°41' W 122°22'6 6.3
2016-Aug-26 16:33N 37°46' W 122°23'2 1.5
2016-Aug-26 15:33N 37°48' W 122°23'6 5.8
2016-Aug-26 14:33N 37°42' W 122°22'2 0.1
2016-Aug-26 01:26N 37°40' W 122°23'0 0.2
2016-Aug-25 23:33N 37°40' W 122°22'0 0.2
2016-Aug-25 22:33N 37°40' W 122°23'1 0.7
2016-Aug-25 21:33N 37°41' W 122°22'0 0.0
2016-Aug-25 20:33N 37°41' W 122°22'0 0.0
2016-Aug-25 19:33N 37°41' W 122°22'0 0.0
2016-Aug-25 14:33N 37°41' W 122°22'0 0.1
2016-Aug-25 13:32N 37°41' W 122°22'0 0.0
2016-Aug-25 02:23N 37°41' W 122°22'6 6.8
2016-Aug-25 01:33N 37°47' W 122°23'3 2.5
2016-Aug-25 00:33N 37°49' W 122°24'7 7.0
2016-Aug-24 23:33N 37°42' W 122°22'4 3.9
2016-Aug-24 22:33N 37°46' W 122°22'2 2.0
2016-Aug-24 21:34N 37°48' W 122°23'5 4.8
2016-Aug-24 20:34N 37°43' W 122°21'0 0.1
2016-Aug-24 19:33N 37°43' W 122°21'6 6.3
2016-Aug-24 18:33N 37°49' W 122°25'6 6.3
2016-Aug-24 17:33N 37°43' W 122°21'3 2.2
2016-Aug-24 16:17N 37°41' W 122°22'0 0.0
2016-Aug-24 15:17N 37°41' W 122°22'0 0.0
2016-Aug-24 00:31N 37°41' W 122°22'0 0.0
2016-Aug-23 23:32N 37°41' W 122°22'0 0.0
2016-Aug-23 22:29N 37°41' W 122°22'0 0.0
2016-Aug-23 21:33N 37°41' W 122°22'0 0.0
2016-Aug-23 20:33N 37°41' W 122°22'0 0.0
2016-Aug-23 19:33N 37°41' W 122°22'0 0.0
2016-Aug-23 18:33N 37°41' W 122°22'0 0.1
2016-Aug-23 17:30N 37°41' W 122°22'0 0.0
2016-Aug-23 16:31N 37°41' W 122°22'1 0.8
2016-Aug-23 15:32N 37°40' W 122°23'1 0.8
2016-Aug-23 14:33N 37°41' W 122°22'0 0.0
2016-Aug-23 13:32N 37°41' W 122°22'1 0.1
2016-Aug-23 02:24N 37°40' W 122°23'0 0.0
2016-Aug-23 00:30N 37°40' W 122°23'0 0.1
2016-Aug-22 20:33N 37°40' W 122°22'0 0.1
2016-Aug-22 17:25N 37°40' W 122°23'1 0.9
2016-Aug-22 16:32N 37°41' W 122°22'0 0.0
2016-Aug-22 15:33N 37°41' W 122°22'0 0.0
2016-Aug-22 14:33N 37°41' W 122°22'0 0.4
2016-Aug-22 13:33N 37°40' W 122°22'1 0.1
2016-Aug-22 06:24N 37°40' W 122°23'0 0.0
2016-Aug-22 01:33N 37°40' W 122°23'0 0.1
2016-Aug-21 23:28N 37°40' W 122°23'1 1.0
2016-Aug-21 22:32N 37°41' W 122°22'0 0.3
2016-Aug-21 21:33N 37°40' W 122°22'1 0.7
2016-Aug-21 20:33N 37°40' W 122°23'1 0.7
2016-Aug-21 19:33N 37°40' W 122°22'0 0.3
2016-Aug-21 18:33N 37°41' W 122°22'0 0.0
2016-Aug-21 17:33N 37°41' W 122°22'0 0.1
2016-Aug-21 16:33N 37°41' W 122°22'0 0.1
2016-Aug-21 15:33N 37°41' W 122°22'1 0.1
2016-Aug-21 03:32N 37°40' W 122°23'0 0.0
2016-Aug-21 02:31N 37°40' W 122°23'0 0.0
2016-Aug-21 01:32N 37°40' W 122°23'5 4.9
2016-Aug-21 00:33N 37°45' W 122°22'5 5.3
2016-Aug-20 23:34N 37°49' W 122°25'7 7.2
2016-Aug-20 22:33N 37°43' W 122°21'1 1.2
2016-Aug-20 21:33N 37°44' W 122°21'5 5.3
2016-Aug-20 20:33N 37°49' W 122°24'5 4.8
2016-Aug-20 19:33N 37°45' W 122°22'5 4.5
2016-Aug-20 18:33N 37°40' W 122°23'1 0.6
2016-Aug-20 17:28N 37°41' W 122°22'7 7.9
2016-Aug-20 16:33N 37°48' W 122°23'1 1.4
2016-Aug-20 15:33N 37°46' W 122°22'6 5.8
2016-Aug-20 14:33N 37°41' W 122°22'1 0.4
2016-Aug-20 12:32N 37°40' W 122°23'0 0.0
2016-Aug-20 11:33N 37°40' W 122°23'0 0.0
2016-Aug-20 10:33N 37°40' W 122°23'0 0.0
2016-Aug-20 09:32N 37°40' W 122°23'0 0.0
2016-Aug-20 08:32N 37°40' W 122°23'0 0.0
2016-Aug-20 07:33N 37°40' W 122°23'0 0.0
2016-Aug-20 06:28N 37°40' W 122°23'0 0.0
2016-Aug-20 05:31N 37°40' W 122°23'0 0.0
2016-Aug-20 04:32N 37°40' W 122°23'1 0.2
2016-Aug-20 00:33N 37°40' W 122°22'1 0.7
2016-Aug-19 23:33N 37°41' W 122°21'0 0.3
2016-Aug-19 22:33N 37°41' W 122°22'1 0.3
2016-Aug-19 19:33N 37°42' W 122°21'2 1.7
2016-Aug-19 18:31N 37°40' W 122°23'1 0.8
2016-Aug-19 17:33N 37°41' W 122°22'0 0.0
2016-Aug-19 15:33N 37°41' W 122°22'0 0.0
2016-Aug-19 14:33N 37°41' W 122°22'0 0.1
2016-Aug-19 13:31N 37°41' W 122°22'1 0.3
2016-Aug-19 10:33N 37°40' W 122°23'0 0.0
2016-Aug-19 09:32N 37°40' W 122°23'0 0.0
2016-Aug-19 08:31N 37°40' W 122°23'0 0.0
2016-Aug-19 07:31N 37°40' W 122°23'0 0.0
2016-Aug-19 06:31N 37°40' W 122°23'0 0.0
2016-Aug-19 05:27N 37°40' W 122°23'0 0.0
2016-Aug-19 04:32N 37°40' W 122°23'0 0.0
2016-Aug-19 03:29N 37°40' W 122°23'0 0.0
2016-Aug-19 02:26N 37°40' W 122°23'0 0.1
2016-Aug-19 01:33N 37°40' W 122°23'0 0.0
2016-Aug-19 00:17N 37°40' W 122°23'4 5.3
2016-Aug-18 23:32N 37°44' W 122°21'4 4.1
2016-Aug-18 22:33N 37°40' W 122°23'  
Track history (hours):
 
Tides and Currents Weather Stations Pressure Air Temp Water Temp Dewpoint Dewpoint Depression Visibility Wind Speed Wind Dir Waves Ship Positions

Silia

Owner: greger pacific marine, napa, CA. More information available from US FCC via Universal Licensing System and Coast Guard Vessel Documentation Center.

Last reported at 2016-Aug-28 22:26 UTC. Time now 2016-Aug-29 01:55 UTC.
Position N 37°40' W 122°23'.

Length 17 m; draft 3 m.

Type: Tug. MMSI: 367511460.

Date/timePositionNaut miles runAvg speedWind from/ knotsBaromVisibWave heightAir tempDewpointWater temp
2016-Aug-28 22:26N 37°40' W 122°23'0 0.0
2016-Aug-28 06:32N 37°40' W 122°23'0 0.0
2016-Aug-27 21:26N 37°40' W 122°23'0 0.0
2016-Aug-27 20:31N 37°40' W 122°23'0 0.0
2016-Aug-27 18:29N 37°40' W 122°23'0 0.0
2016-Aug-27 02:17N 37°40' W 122°23'0 0.0
2016-Aug-27 01:33N 37°40' W 122°23'4 4.2
2016-Aug-27 00:33N 37°44' W 122°22'5 4.6
2016-Aug-26 23:33N 37°49' W 122°24'5 4.9
2016-Aug-26 22:34N 37°44' W 122°21'3 3.3
2016-Aug-26 21:31N 37°41' W 122°22'7 7.0
2016-Aug-26 20:33N 37°47' W 122°23'1 1.0
2016-Aug-26 19:33N 37°46' W 122°23'6 6.1
2016-Aug-26 18:32N 37°40' W 122°23'1 0.8
2016-Aug-26 17:28N 37°41' W 122°22'6 6.3
2016-Aug-26 16:33N 37°46' W 122°23'2 1.5
2016-Aug-26 15:33N 37°48' W 122°23'6 5.8
2016-Aug-26 14:33N 37°42' W 122°22'2 0.1
2016-Aug-26 01:26N 37°40' W 122°23'0 0.2
2016-Aug-25 23:33N 37°40' W 122°22'0 0.2
2016-Aug-25 22:33N 37°40' W 122°23'1 0.7
2016-Aug-25 21:33N 37°41' W 122°22'0 0.0
2016-Aug-25 20:33N 37°41' W 122°22'0 0.0
2016-Aug-25 19:33N 37°41' W 122°22'0 0.0
2016-Aug-25 14:33N 37°41' W 122°22'0 0.1
2016-Aug-25 13:32N 37°41' W 122°22'0 0.0
2016-Aug-25 02:23N 37°41' W 122°22'6 6.8
2016-Aug-25 01:33N 37°47' W 122°23'3 2.5
2016-Aug-25 00:33N 37°49' W 122°24'7 7.0
2016-Aug-24 23:33N 37°42' W 122°22'4 3.9
2016-Aug-24 22:33N 37°46' W 122°22'2 2.0
2016-Aug-24 21:34N 37°48' W 122°23'5 4.8
2016-Aug-24 20:34N 37°43' W 122°21'0 0.1
2016-Aug-24 19:33N 37°43' W 122°21'6 6.3
2016-Aug-24 18:33N 37°49' W 122°25'6 6.3
2016-Aug-24 17:33N 37°43' W 122°21'3 2.2
2016-Aug-24 16:17N 37°41' W 122°22'0 0.0
2016-Aug-24 15:17N 37°41' W 122°22'0 0.0
2016-Aug-24 00:31N 37°41' W 122°22'0 0.0
2016-Aug-23 23:32N 37°41' W 122°22'0 0.0
2016-Aug-23 22:29N 37°41' W 122°22'0 0.0
2016-Aug-23 21:33N 37°41' W 122°22'0 0.0
2016-Aug-23 20:33N 37°41' W 122°22'0 0.0
2016-Aug-23 19:33N 37°41' W 122°22'0 0.0
2016-Aug-23 18:33N 37°41' W 122°22'0 0.1
2016-Aug-23 17:30N 37°41' W 122°22'0 0.0
2016-Aug-23 16:31N 37°41' W 122°22'1 0.8
2016-Aug-23 15:32N 37°40' W 122°23'1 0.8
2016-Aug-23 14:33N 37°41' W 122°22'0 0.0
2016-Aug-23 13:32N 37°41' W 122°22'1 0.1
2016-Aug-23 02:24N 37°40' W 122°23'0 0.0
2016-Aug-23 00:30N 37°40' W 122°23'0 0.1
2016-Aug-22 20:33N 37°40' W 122°22'0 0.1
2016-Aug-22 17:25N 37°40' W 122°23'1 0.9
2016-Aug-22 16:32N 37°41' W 122°22'0 0.0
2016-Aug-22 15:33N 37°41' W 122°22'0 0.0
2016-Aug-22 14:33N 37°41' W 122°22'0 0.4
2016-Aug-22 13:33N 37°40' W 122°22'1 0.1
2016-Aug-22 06:24N 37°40' W 122°23'0 0.0
2016-Aug-22 01:33N 37°40' W 122°23'0 0.1
2016-Aug-21 23:28N 37°40' W 122°23'1 1.0
2016-Aug-21 22:32N 37°41' W 122°22'0 0.3
2016-Aug-21 21:33N 37°40' W 122°22'1 0.7
2016-Aug-21 20:33N 37°40' W 122°23'1 0.7
2016-Aug-21 19:33N 37°40' W 122°22'0 0.3
2016-Aug-21 18:33N 37°41' W 122°22'0 0.0
2016-Aug-21 17:33N 37°41' W 122°22'0 0.1
2016-Aug-21 16:33N 37°41' W 122°22'0 0.1
2016-Aug-21 15:33N 37°41' W 122°22'1 0.1
2016-Aug-21 03:32N 37°40' W 122°23'0 0.0
2016-Aug-21 02:31N 37°40' W 122°23'0 0.0
2016-Aug-21 01:32N 37°40' W 122°23'5 4.9
2016-Aug-21 00:33N 37°45' W 122°22'5 5.3
2016-Aug-20 23:34N 37°49' W 122°25'7 7.2
2016-Aug-20 22:33N 37°43' W 122°21'1 1.2
2016-Aug-20 21:33N 37°44' W 122°21'5 5.3
2016-Aug-20 20:33N 37°49' W 122°24'5 4.8
2016-Aug-20 19:33N 37°45' W 122°22'5 4.5
2016-Aug-20 18:33N 37°40' W 122°23'1 0.6
2016-Aug-20 17:28N 37°41' W 122°22'7 7.9
2016-Aug-20 16:33N 37°48' W 122°23'1 1.4
2016-Aug-20 15:33N 37°46' W 122°22'6 5.8
2016-Aug-20 14:33N 37°41' W 122°22'1 0.4
2016-Aug-20 12:32N 37°40' W 122°23'0 0.0
2016-Aug-20 11:33N 37°40' W 122°23'0 0.0
2016-Aug-20 10:33N 37°40' W 122°23'0 0.0
2016-Aug-20 09:32N 37°40' W 122°23'0 0.0
2016-Aug-20 08:32N 37°40' W 122°23'0 0.0
2016-Aug-20 07:33N 37°40' W 122°23'0 0.0
2016-Aug-20 06:28N 37°40' W 122°23'0 0.0
2016-Aug-20 05:31N 37°40' W 122°23'0 0.0
2016-Aug-20 04:32N 37°40' W 122°23'1 0.2
2016-Aug-20 00:33N 37°40' W 122°22'1 0.7
2016-Aug-19 23:33N 37°41' W 122°21'0 0.3
2016-Aug-19 22:33N 37°41' W 122°22'1 0.3
2016-Aug-19 19:33N 37°42' W 122°21'2 1.7
2016-Aug-19 18:31N 37°40' W 122°23'1 0.8
2016-Aug-19 17:33N 37°41' W 122°22'0 0.0
2016-Aug-19 15:33N 37°41' W 122°22'0 0.0
2016-Aug-19 14:33N 37°41' W 122°22'0 0.1
2016-Aug-19 13:31N 37°41' W 122°22'1 0.3
2016-Aug-19 10:33N 37°40' W 122°23'0 0.0
2016-Aug-19 09:32N 37°40' W 122°23'0 0.0
2016-Aug-19 08:31N 37°40' W 122°23'0 0.0
2016-Aug-19 07:31N 37°40' W 122°23'0 0.0
2016-Aug-19 06:31N 37°40' W 122°23'0 0.0
2016-Aug-19 05:27N 37°40' W 122°23'0 0.0
2016-Aug-19 04:32N 37°40' W 122°23'0 0.0
2016-Aug-19 03:29N 37°40' W 122°23'0 0.0
2016-Aug-19 02:26N 37°40' W 122°23'0 0.1
2016-Aug-19 01:33N 37°40' W 122°23'0 0.0
2016-Aug-19 00:17N 37°40' W 122°23'4 5.3
2016-Aug-18 23:32N 37°44' W 122°21'4 4.1
2016-Aug-18 22:33N 37°40' W 122°23'  

Dump ship's entire track history